sensor_id;sensor_type;location;lat;lon;timestamp;P1;durP1;ratioP1;P2;durP2;ratioP2
41253;SDS011;26987;59.928;30.306;2023-02-11T00:01:40;9.93;;;2.22;;
41253;SDS011;26987;59.928;30.306;2023-02-11T00:04:07;8.77;;;2.20;;
41253;SDS011;26987;59.928;30.306;2023-02-11T00:06:35;9.75;;;2.00;;
41253;SDS011;26987;59.928;30.306;2023-02-11T00:09:03;10.25;;;1.50;;
41253;SDS011;26987;59.928;30.306;2023-02-11T00:11:31;9.02;;;1.23;;
41253;SDS011;26987;59.928;30.306;2023-02-11T00:14:00;12.30;;;1.33;;
41253;SDS011;26987;59.928;30.306;2023-02-11T00:16:31;10.90;;;1.60;;
41253;SDS011;26987;59.928;30.306;2023-02-11T00:19:00;12.30;;;2.08;;
41253;SDS011;26987;59.928;30.306;2023-02-11T00:21:30;13.80;;;1.30;;
41253;SDS011;26987;59.928;30.306;2023-02-11T00:23:59;9.77;;;1.50;;
41253;SDS011;26987;59.928;30.306;2023-02-11T00:26:28;20.33;;;2.00;;
41253;SDS011;26987;59.928;30.306;2023-02-11T00:28:57;6.20;;;1.30;;
41253;SDS011;26987;59.928;30.306;2023-02-11T00:31:25;10.05;;;1.23;;
41253;SDS011;26987;59.928;30.306;2023-02-11T00:33:55;14.73;;;1.65;;
41253;SDS011;26987;59.928;30.306;2023-02-11T00:36:24;9.82;;;1.15;;
41253;SDS011;26987;59.928;30.306;2023-02-11T00:38:54;8.25;;;1.67;;
41253;SDS011;26987;59.928;30.306;2023-02-11T00:41:23;5.28;;;1.10;;
41253;SDS011;26987;59.928;30.306;2023-02-11T00:43:51;8.60;;;2.17;;
41253;SDS011;26987;59.928;30.306;2023-02-11T00:46:19;6.85;;;1.23;;
41253;SDS011;26987;59.928;30.306;2023-02-11T00:48:48;12.93;;;1.15;;
41253;SDS011;26987;59.928;30.306;2023-02-11T00:51:22;9.40;;;1.73;;
41253;SDS011;26987;59.928;30.306;2023-02-11T00:53:50;6.13;;;0.98;;
41253;SDS011;26987;59.928;30.306;2023-02-11T00:56:18;10.45;;;1.17;;
41253;SDS011;26987;59.928;30.306;2023-02-11T00:58:46;11.43;;;1.05;;
41253;SDS011;26987;59.928;30.306;2023-02-11T01:01:16;14.48;;;1.33;;
41253;SDS011;26987;59.928;30.306;2023-02-11T01:03:44;12.23;;;1.95;;
41253;SDS011;26987;59.928;30.306;2023-02-11T01:06:12;6.90;;;1.00;;
41253;SDS011;26987;59.928;30.306;2023-02-11T01:08:41;15.00;;;1.02;;
41253;SDS011;26987;59.928;30.306;2023-02-11T01:11:13;8.77;;;1.00;;
41253;SDS011;26987;59.928;30.306;2023-02-11T01:13:44;14.38;;;3.00;;
41253;SDS011;26987;59.928;30.306;2023-02-11T01:16:14;11.48;;;1.27;;
41253;SDS011;26987;59.928;30.306;2023-02-11T01:18:45;5.75;;;1.10;;
41253;SDS011;26987;59.928;30.306;2023-02-11T01:21:13;10.18;;;1.77;;
41253;SDS011;26987;59.928;30.306;2023-02-11T01:23:43;9.27;;;1.50;;
41253;SDS011;26987;59.928;30.306;2023-02-11T01:26:11;14.18;;;2.53;;
41253;SDS011;26987;59.928;30.306;2023-02-11T01:28:39;7.88;;;1.23;;
41253;SDS011;26987;59.928;30.306;2023-02-11T01:31:07;9.68;;;1.63;;
41253;SDS011;26987;59.928;30.306;2023-02-11T01:33:35;9.98;;;1.13;;
41253;SDS011;26987;59.928;30.306;2023-02-11T01:36:05;7.85;;;1.10;;
41253;SDS011;26987;59.928;30.306;2023-02-11T01:38:34;11.15;;;1.58;;
41253;SDS011;26987;59.928;30.306;2023-02-11T01:41:05;10.77;;;1.65;;
41253;SDS011;26987;59.928;30.306;2023-02-11T01:43:35;5.05;;;1.52;;
41253;SDS011;26987;59.928;30.306;2023-02-11T01:46:12;6.65;;;2.17;;
41253;SDS011;26987;59.928;30.306;2023-02-11T01:51:21;5.15;;;1.88;;
41253;SDS011;26987;59.928;30.306;2023-02-11T01:53:51;8.88;;;1.27;;
41253;SDS011;26987;59.928;30.306;2023-02-11T01:56:40;7.40;;;1.10;;
41253;SDS011;26987;59.928;30.306;2023-02-11T01:59:31;8.77;;;1.05;;
41253;SDS011;26987;59.928;30.306;2023-02-11T02:02:05;5.25;;;1.85;;
41253;SDS011;26987;59.928;30.306;2023-02-11T02:04:37;9.75;;;1.25;;
41253;SDS011;26987;59.928;30.306;2023-02-11T02:07:12;6.40;;;1.45;;
41253;SDS011;26987;59.928;30.306;2023-02-11T02:09:48;8.90;;;1.50;;
41253;SDS011;26987;59.928;30.306;2023-02-11T02:12:25;4.00;;;0.82;;
41253;SDS011;26987;59.928;30.306;2023-02-11T02:15:09;4.85;;;1.20;;
41253;SDS011;26987;59.928;30.306;2023-02-11T02:17:53;7.55;;;1.35;;
41253;SDS011;26987;59.928;30.306;2023-02-11T02:20:31;7.93;;;1.17;;
41253;SDS011;26987;59.928;30.306;2023-02-11T02:23:27;14.23;;;1.50;;
41253;SDS011;26987;59.928;30.306;2023-02-11T02:26:19;7.22;;;0.98;;
41253;SDS011;26987;59.928;30.306;2023-02-11T02:29:14;15.30;;;1.45;;
41253;SDS011;26987;59.928;30.306;2023-02-11T02:35:04;13.90;;;2.85;;
41253;SDS011;26987;59.928;30.306;2023-02-11T02:37:43;11.23;;;1.65;;
41253;SDS011;26987;59.928;30.306;2023-02-11T02:40:15;7.72;;;1.80;;
41253;SDS011;26987;59.928;30.306;2023-02-11T02:42:46;5.78;;;1.95;;
41253;SDS011;26987;59.928;30.306;2023-02-11T02:45:16;7.50;;;1.50;;
41253;SDS011;26987;59.928;30.306;2023-02-11T02:47:46;7.05;;;1.30;;
41253;SDS011;26987;59.928;30.306;2023-02-11T02:50:15;7.55;;;1.73;;
41253;SDS011;26987;59.928;30.306;2023-02-11T02:52:52;7.47;;;1.77;;
41253;SDS011;26987;59.928;30.306;2023-02-11T02:55:31;7.15;;;1.50;;
41253;SDS011;26987;59.928;30.306;2023-02-11T02:58:20;5.75;;;1.00;;
41253;SDS011;26987;59.928;30.306;2023-02-11T03:01:15;7.95;;;1.50;;
41253;SDS011;26987;59.928;30.306;2023-02-11T03:03:56;6.55;;;1.20;;
41253;SDS011;26987;59.928;30.306;2023-02-11T03:06:30;6.80;;;1.40;;
41253;SDS011;26987;59.928;30.306;2023-02-11T03:09:03;10.70;;;2.13;;
41253;SDS011;26987;59.928;30.306;2023-02-11T03:11:34;6.90;;;1.13;;
41253;SDS011;26987;59.928;30.306;2023-02-11T03:14:06;6.10;;;2.00;;
41253;SDS011;26987;59.928;30.306;2023-02-11T03:16:36;6.30;;;1.98;;
41253;SDS011;26987;59.928;30.306;2023-02-11T03:19:08;3.03;;;1.10;;
41253;SDS011;26987;59.928;30.306;2023-02-11T03:21:39;5.90;;;1.05;;
41253;SDS011;26987;59.928;30.306;2023-02-11T03:24:11;8.82;;;1.45;;
41253;SDS011;26987;59.928;30.306;2023-02-11T03:26:42;5.18;;;1.10;;
41253;SDS011;26987;59.928;30.306;2023-02-11T03:29:16;7.53;;;1.05;;
41253;SDS011;26987;59.928;30.306;2023-02-11T03:31:52;7.85;;;1.10;;
41253;SDS011;26987;59.928;30.306;2023-02-11T03:34:30;6.03;;;1.52;;
41253;SDS011;26987;59.928;30.306;2023-02-11T03:37:04;5.65;;;1.55;;
41253;SDS011;26987;59.928;30.306;2023-02-11T03:39:37;8.10;;;1.52;;
41253;SDS011;26987;59.928;30.306;2023-02-11T03:42:07;6.35;;;1.85;;
41253;SDS011;26987;59.928;30.306;2023-02-11T03:44:38;5.72;;;1.40;;
41253;SDS011;26987;59.928;30.306;2023-02-11T03:47:10;4.47;;;1.05;;
41253;SDS011;26987;59.928;30.306;2023-02-11T03:49:42;12.85;;;1.55;;
41253;SDS011;26987;59.928;30.306;2023-02-11T03:52:14;6.05;;;1.45;;
41253;SDS011;26987;59.928;30.306;2023-02-11T03:54:44;6.72;;;1.40;;
41253;SDS011;26987;59.928;30.306;2023-02-11T03:57:15;3.75;;;1.45;;
41253;SDS011;26987;59.928;30.306;2023-02-11T03:59:50;3.83;;;0.90;;
41253;SDS011;26987;59.928;30.306;2023-02-11T04:02:19;3.50;;;1.00;;
41253;SDS011;26987;59.928;30.306;2023-02-11T04:04:49;8.90;;;1.00;;
41253;SDS011;26987;59.928;30.306;2023-02-11T04:07:17;7.50;;;1.88;;
41253;SDS011;26987;59.928;30.306;2023-02-11T04:09:45;9.57;;;2.47;;
41253;SDS011;26987;59.928;30.306;2023-02-11T04:12:13;10.88;;;2.63;;
41253;SDS011;26987;59.928;30.306;2023-02-11T04:14:41;8.60;;;1.65;;
41253;SDS011;26987;59.928;30.306;2023-02-11T04:17:09;3.08;;;1.15;;
41253;SDS011;26987;59.928;30.306;2023-02-11T04:19:37;2.58;;;0.70;;
41253;SDS011;26987;59.928;30.306;2023-02-11T04:22:07;5.68;;;1.08;;
41253;SDS011;26987;59.928;30.306;2023-02-11T04:24:35;6.75;;;1.20;;
41253;SDS011;26987;59.928;30.306;2023-02-11T04:27:02;7.28;;;1.10;;
41253;SDS011;26987;59.928;30.306;2023-02-11T04:29:30;8.00;;;1.08;;
41253;SDS011;26987;59.928;30.306;2023-02-11T04:31:58;5.03;;;1.02;;
41253;SDS011;26987;59.928;30.306;2023-02-11T04:34:26;4.25;;;1.15;;
41253;SDS011;26987;59.928;30.306;2023-02-11T04:36:54;8.02;;;1.15;;
41253;SDS011;26987;59.928;30.306;2023-02-11T04:39:23;7.75;;;1.30;;
41253;SDS011;26987;59.928;30.306;2023-02-11T04:41:51;4.10;;;1.00;;
41253;SDS011;26987;59.928;30.306;2023-02-11T04:44:19;5.97;;;1.13;;
41253;SDS011;26987;59.928;30.306;2023-02-11T04:46:47;7.05;;;1.33;;
41253;SDS011;26987;59.928;30.306;2023-02-11T04:49:15;7.43;;;1.40;;
41253;SDS011;26987;59.928;30.306;2023-02-11T04:51:43;6.47;;;1.58;;
41253;SDS011;26987;59.928;30.306;2023-02-11T04:54:11;5.50;;;1.23;;
41253;SDS011;26987;59.928;30.306;2023-02-11T04:56:41;5.15;;;1.60;;
41253;SDS011;26987;59.928;30.306;2023-02-11T04:59:09;6.47;;;1.08;;
41253;SDS011;26987;59.928;30.306;2023-02-11T05:01:38;7.13;;;1.50;;
41253;SDS011;26987;59.928;30.306;2023-02-11T05:04:06;5.10;;;1.02;;
41253;SDS011;26987;59.928;30.306;2023-02-11T05:06:34;6.35;;;1.73;;
41253;SDS011;26987;59.928;30.306;2023-02-11T05:09:04;8.30;;;1.58;;
41253;SDS011;26987;59.928;30.306;2023-02-11T05:11:32;7.88;;;2.13;;
41253;SDS011;26987;59.928;30.306;2023-02-11T05:14:03;4.40;;;1.55;;
41253;SDS011;26987;59.928;30.306;2023-02-11T05:16:31;6.68;;;1.13;;
41253;SDS011;26987;59.928;30.306;2023-02-11T05:18:59;18.27;;;2.50;;
41253;SDS011;26987;59.928;30.306;2023-02-11T05:21:27;5.13;;;1.55;;
41253;SDS011;26987;59.928;30.306;2023-02-11T05:23:55;7.50;;;1.60;;
41253;SDS011;26987;59.928;30.306;2023-02-11T05:26:23;8.70;;;1.40;;
41253;SDS011;26987;59.928;30.306;2023-02-11T05:28:51;8.43;;;1.50;;
41253;SDS011;26987;59.928;30.306;2023-02-11T05:31:20;9.90;;;2.70;;
41253;SDS011;26987;59.928;30.306;2023-02-11T05:33:48;9.00;;;1.42;;
41253;SDS011;26987;59.928;30.306;2023-02-11T05:36:16;6.95;;;1.67;;
41253;SDS011;26987;59.928;30.306;2023-02-11T05:38:44;9.40;;;1.17;;
41253;SDS011;26987;59.928;30.306;2023-02-11T05:41:12;10.05;;;1.60;;
41253;SDS011;26987;59.928;30.306;2023-02-11T05:43:40;5.53;;;1.35;;
41253;SDS011;26987;59.928;30.306;2023-02-11T05:46:08;10.20;;;1.55;;
41253;SDS011;26987;59.928;30.306;2023-02-11T05:48:37;8.00;;;1.38;;
41253;SDS011;26987;59.928;30.306;2023-02-11T05:51:05;9.27;;;1.30;;
41253;SDS011;26987;59.928;30.306;2023-02-11T05:53:33;8.63;;;1.50;;
41253;SDS011;26987;59.928;30.306;2023-02-11T05:56:01;8.82;;;2.08;;
41253;SDS011;26987;59.928;30.306;2023-02-11T05:58:29;10.48;;;1.83;;
41253;SDS011;26987;59.928;30.306;2023-02-11T06:00:57;5.20;;;1.45;;
41253;SDS011;26987;59.928;30.306;2023-02-11T06:03:25;9.93;;;2.42;;
41253;SDS011;26987;59.928;30.306;2023-02-11T06:05:54;5.28;;;1.48;;
41253;SDS011;26987;59.928;30.306;2023-02-11T06:08:22;6.10;;;1.60;;
41253;SDS011;26987;59.928;30.306;2023-02-11T06:10:50;7.22;;;1.90;;
41253;SDS011;26987;59.928;30.306;2023-02-11T06:13:17;8.93;;;1.95;;
41253;SDS011;26987;59.928;30.306;2023-02-11T06:15:54;9.48;;;2.50;;
41253;SDS011;26987;59.928;30.306;2023-02-11T06:18:22;11.98;;;2.05;;
41253;SDS011;26987;59.928;30.306;2023-02-11T06:20:50;6.25;;;1.45;;
41253;SDS011;26987;59.928;30.306;2023-02-11T06:23:19;10.20;;;1.80;;
41253;SDS011;26987;59.928;30.306;2023-02-11T06:25:47;10.10;;;2.15;;
41253;SDS011;26987;59.928;30.306;2023-02-11T06:28:15;8.55;;;1.88;;
41253;SDS011;26987;59.928;30.306;2023-02-11T06:30:43;7.38;;;2.22;;
41253;SDS011;26987;59.928;30.306;2023-02-11T06:33:11;8.27;;;1.65;;
41253;SDS011;26987;59.928;30.306;2023-02-11T06:35:39;13.23;;;2.53;;
41253;SDS011;26987;59.928;30.306;2023-02-11T06:38:07;9.68;;;2.42;;
41253;SDS011;26987;59.928;30.306;2023-02-11T06:40:36;13.80;;;3.25;;
41253;SDS011;26987;59.928;30.306;2023-02-11T06:43:04;10.32;;;2.75;;
41253;SDS011;26987;59.928;30.306;2023-02-11T06:45:32;11.90;;;2.72;;
41253;SDS011;26987;59.928;30.306;2023-02-11T06:48:00;7.38;;;2.30;;
41253;SDS011;26987;59.928;30.306;2023-02-11T06:50:27;11.80;;;2.83;;
41253;SDS011;26987;59.928;30.306;2023-02-11T06:52:55;12.20;;;3.78;;
41253;SDS011;26987;59.928;30.306;2023-02-11T06:55:25;15.55;;;2.60;;
41253;SDS011;26987;59.928;30.306;2023-02-11T06:57:54;10.77;;;2.67;;
41253;SDS011;26987;59.928;30.306;2023-02-11T07:00:22;10.73;;;3.33;;
41253;SDS011;26987;59.928;30.306;2023-02-11T07:02:50;5.75;;;2.40;;
41253;SDS011;26987;59.928;30.306;2023-02-11T07:05:18;8.00;;;1.98;;
41253;SDS011;26987;59.928;30.306;2023-02-11T07:07:46;8.13;;;1.77;;
41253;SDS011;26987;59.928;30.306;2023-02-11T07:10:14;8.25;;;2.08;;
41253;SDS011;26987;59.928;30.306;2023-02-11T07:12:42;13.93;;;4.13;;
41253;SDS011;26987;59.928;30.306;2023-02-11T07:15:11;17.70;;;4.95;;
41253;SDS011;26987;59.928;30.306;2023-02-11T07:17:39;14.20;;;4.38;;
41253;SDS011;26987;59.928;30.306;2023-02-11T07:20:08;12.48;;;4.20;;
41253;SDS011;26987;59.928;30.306;2023-02-11T07:22:39;14.02;;;5.32;;
41253;SDS011;26987;59.928;30.306;2023-02-11T07:25:07;12.05;;;4.05;;
41253;SDS011;26987;59.928;30.306;2023-02-11T07:27:35;9.00;;;2.95;;
41253;SDS011;26987;59.928;30.306;2023-02-11T07:30:03;9.50;;;3.45;;
41253;SDS011;26987;59.928;30.306;2023-02-11T07:32:33;15.43;;;3.58;;
41253;SDS011;26987;59.928;30.306;2023-02-11T07:35:01;17.20;;;4.15;;
41253;SDS011;26987;59.928;30.306;2023-02-11T07:37:29;11.18;;;3.75;;
41253;SDS011;26987;59.928;30.306;2023-02-11T07:39:59;13.13;;;3.47;;
41253;SDS011;26987;59.928;30.306;2023-02-11T07:42:27;14.20;;;3.88;;
41253;SDS011;26987;59.928;30.306;2023-02-11T07:44:55;18.25;;;4.40;;
41253;SDS011;26987;59.928;30.306;2023-02-11T07:47:23;15.88;;;4.90;;
41253;SDS011;26987;59.928;30.306;2023-02-11T07:49:52;21.35;;;6.57;;
41253;SDS011;26987;59.928;30.306;2023-02-11T07:52:20;14.43;;;5.88;;
41253;SDS011;26987;59.928;30.306;2023-02-11T07:54:48;17.80;;;6.22;;
41253;SDS011;26987;59.928;30.306;2023-02-11T07:57:16;16.10;;;5.38;;
41253;SDS011;26987;59.928;30.306;2023-02-11T07:59:44;19.50;;;5.32;;
41253;SDS011;26987;59.928;30.306;2023-02-11T08:02:11;16.17;;;5.55;;
41253;SDS011;26987;59.928;30.306;2023-02-11T08:04:39;14.77;;;5.70;;
41253;SDS011;26987;59.928;30.306;2023-02-11T08:07:09;14.38;;;5.10;;
41253;SDS011;26987;59.928;30.306;2023-02-11T08:09:36;19.25;;;4.70;;
41253;SDS011;26987;59.928;30.306;2023-02-11T08:12:07;13.25;;;5.57;;
41253;SDS011;26987;59.928;30.306;2023-02-11T08:14:35;10.43;;;4.35;;
41253;SDS011;26987;59.928;30.306;2023-02-11T08:17:03;10.13;;;3.47;;
41253;SDS011;26987;59.928;30.306;2023-02-11T08:19:31;13.40;;;4.25;;
41253;SDS011;26987;59.928;30.306;2023-02-11T08:21:59;18.17;;;4.90;;
41253;SDS011;26987;59.928;30.306;2023-02-11T08:24:28;13.10;;;3.38;;
41253;SDS011;26987;59.928;30.306;2023-02-11T08:26:56;11.77;;;3.13;;
41253;SDS011;26987;59.928;30.306;2023-02-11T08:29:24;13.98;;;3.28;;
41253;SDS011;26987;59.928;30.306;2023-02-11T08:31:52;11.15;;;4.10;;
41253;SDS011;26987;59.928;30.306;2023-02-11T08:34:20;10.20;;;2.70;;
41253;SDS011;26987;59.928;30.306;2023-02-11T08:36:48;10.48;;;3.25;;
41253;SDS011;26987;59.928;30.306;2023-02-11T08:39:16;11.90;;;3.58;;
41253;SDS011;26987;59.928;30.306;2023-02-11T08:41:50;13.13;;;3.20;;
41253;SDS011;26987;59.928;30.306;2023-02-11T08:44:19;19.95;;;3.35;;
41253;SDS011;26987;59.928;30.306;2023-02-11T08:46:48;11.93;;;3.28;;
41253;SDS011;26987;59.928;30.306;2023-02-11T08:49:17;14.38;;;3.10;;
41253;SDS011;26987;59.928;30.306;2023-02-11T08:51:46;14.70;;;3.15;;
41253;SDS011;26987;59.928;30.306;2023-02-11T08:54:14;22.98;;;3.80;;
41253;SDS011;26987;59.928;30.306;2023-02-11T08:56:42;12.10;;;3.15;;
41253;SDS011;26987;59.928;30.306;2023-02-11T08:59:13;11.52;;;3.13;;
41253;SDS011;26987;59.928;30.306;2023-02-11T09:01:42;15.32;;;3.58;;
41253;SDS011;26987;59.928;30.306;2023-02-11T09:04:12;15.80;;;3.00;;
41253;SDS011;26987;59.928;30.306;2023-02-11T09:06:40;15.05;;;3.30;;
41253;SDS011;26987;59.928;30.306;2023-02-11T09:09:09;9.85;;;3.10;;
41253;SDS011;26987;59.928;30.306;2023-02-11T09:11:39;12.18;;;3.72;;
41253;SDS011;26987;59.928;30.306;2023-02-11T09:14:11;13.10;;;4.50;;
41253;SDS011;26987;59.928;30.306;2023-02-11T09:16:44;14.20;;;3.88;;
41253;SDS011;26987;59.928;30.306;2023-02-11T09:19:12;15.55;;;5.10;;
41253;SDS011;26987;59.928;30.306;2023-02-11T09:21:40;17.13;;;3.67;;
41253;SDS011;26987;59.928;30.306;2023-02-11T09:24:08;15.90;;;4.20;;
41253;SDS011;26987;59.928;30.306;2023-02-11T09:26:36;28.05;;;5.18;;
41253;SDS011;26987;59.928;30.306;2023-02-11T09:29:04;16.38;;;4.35;;
41253;SDS011;26987;59.928;30.306;2023-02-11T09:31:34;13.13;;;3.78;;
41253;SDS011;26987;59.928;30.306;2023-02-11T09:34:02;17.00;;;4.35;;
41253;SDS011;26987;59.928;30.306;2023-02-11T09:36:32;10.77;;;4.05;;
41253;SDS011;26987;59.928;30.306;2023-02-11T09:39:02;12.07;;;3.85;;
41253;SDS011;26987;59.928;30.306;2023-02-11T09:41:34;9.73;;;3.42;;
41253;SDS011;26987;59.928;30.306;2023-02-11T09:44:09;14.77;;;4.53;;
41253;SDS011;26987;59.928;30.306;2023-02-11T09:46:46;10.50;;;4.60;;
41253;SDS011;26987;59.928;30.306;2023-02-11T09:49:21;14.98;;;4.57;;
41253;SDS011;26987;59.928;30.306;2023-02-11T09:51:53;12.73;;;4.20;;
41253;SDS011;26987;59.928;30.306;2023-02-11T09:54:26;12.60;;;4.07;;
41253;SDS011;26987;59.928;30.306;2023-02-11T09:57:00;14.48;;;3.75;;
41253;SDS011;26987;59.928;30.306;2023-02-11T09:59:28;16.23;;;3.28;;
41253;SDS011;26987;59.928;30.306;2023-02-11T10:01:57;14.63;;;3.22;;
41253;SDS011;26987;59.928;30.306;2023-02-11T10:04:43;11.93;;;3.00;;
41253;SDS011;26987;59.928;30.306;2023-02-11T10:07:27;7.47;;;3.65;;
41253;SDS011;26987;59.928;30.306;2023-02-11T10:10:07;15.25;;;3.60;;
41253;SDS011;26987;59.928;30.306;2023-02-11T10:12:48;9.95;;;3.78;;
41253;SDS011;26987;59.928;30.306;2023-02-11T10:15:24;13.88;;;3.42;;
41253;SDS011;26987;59.928;30.306;2023-02-11T10:18:16;12.70;;;3.38;;
41253;SDS011;26987;59.928;30.306;2023-02-11T10:21:03;8.00;;;3.25;;
41253;SDS011;26987;59.928;30.306;2023-02-11T10:23:39;13.65;;;4.00;;
41253;SDS011;26987;59.928;30.306;2023-02-11T10:26:12;15.30;;;4.30;;
41253;SDS011;26987;59.928;30.306;2023-02-11T10:28:43;12.82;;;3.33;;
41253;SDS011;26987;59.928;30.306;2023-02-11T10:31:15;17.77;;;4.13;;
41253;SDS011;26987;59.928;30.306;2023-02-11T10:33:51;14.75;;;4.50;;
41253;SDS011;26987;59.928;30.306;2023-02-11T10:36:26;14.90;;;4.10;;
41253;SDS011;26987;59.928;30.306;2023-02-11T10:38:57;11.35;;;3.90;;
41253;SDS011;26987;59.928;30.306;2023-02-11T10:41:27;13.68;;;4.00;;
41253;SDS011;26987;59.928;30.306;2023-02-11T10:43:59;13.10;;;3.90;;
41253;SDS011;26987;59.928;30.306;2023-02-11T10:46:30;13.50;;;3.85;;
41253;SDS011;26987;59.928;30.306;2023-02-11T10:49:04;10.75;;;3.05;;
41253;SDS011;26987;59.928;30.306;2023-02-11T10:51:32;8.65;;;3.22;;
41253;SDS011;26987;59.928;30.306;2023-02-11T10:54:10;9.25;;;2.72;;
41253;SDS011;26987;59.928;30.306;2023-02-11T10:56:44;9.05;;;2.90;;
41253;SDS011;26987;59.928;30.306;2023-02-11T10:59:19;10.43;;;2.67;;
41253;SDS011;26987;59.928;30.306;2023-02-11T11:01:52;16.15;;;2.83;;
41253;SDS011;26987;59.928;30.306;2023-02-11T11:04:31;7.20;;;2.80;;
41253;SDS011;26987;59.928;30.306;2023-02-11T11:07:12;9.55;;;3.35;;
41253;SDS011;26987;59.928;30.306;2023-02-11T11:09:46;13.88;;;2.92;;
41253;SDS011;26987;59.928;30.306;2023-02-11T11:12:24;10.88;;;2.33;;
41253;SDS011;26987;59.928;30.306;2023-02-11T11:14:54;8.75;;;2.30;;
41253;SDS011;26987;59.928;30.306;2023-02-11T11:17:22;7.75;;;2.15;;
41253;SDS011;26987;59.928;30.306;2023-02-11T11:20:01;10.43;;;3.10;;
41253;SDS011;26987;59.928;30.306;2023-02-11T11:22:41;10.55;;;1.83;;
41253;SDS011;26987;59.928;30.306;2023-02-11T11:25:23;6.97;;;2.10;;
41253;SDS011;26987;59.928;30.306;2023-02-11T11:27:53;11.35;;;3.47;;
41253;SDS011;26987;59.928;30.306;2023-02-11T11:30:26;10.55;;;2.28;;
41253;SDS011;26987;59.928;30.306;2023-02-11T11:32:59;8.52;;;2.47;;
41253;SDS011;26987;59.928;30.306;2023-02-11T11:35:29;11.25;;;2.30;;
41253;SDS011;26987;59.928;30.306;2023-02-11T11:37:59;9.15;;;2.53;;
41253;SDS011;26987;59.928;30.306;2023-02-11T11:40:29;7.88;;;2.92;;
41253;SDS011;26987;59.928;30.306;2023-02-11T11:43:03;14.23;;;2.75;;
41253;SDS011;26987;59.928;30.306;2023-02-11T11:45:33;8.52;;;2.65;;
41253;SDS011;26987;59.928;30.306;2023-02-11T11:48:02;8.63;;;2.30;;
41253;SDS011;26987;59.928;30.306;2023-02-11T11:50:38;11.68;;;2.25;;
41253;SDS011;26987;59.928;30.306;2023-02-11T11:53:10;9.52;;;2.78;;
41253;SDS011;26987;59.928;30.306;2023-02-11T11:55:43;9.88;;;2.50;;
41253;SDS011;26987;59.928;30.306;2023-02-11T11:58:15;9.77;;;2.38;;
41253;SDS011;26987;59.928;30.306;2023-02-11T12:00:48;9.13;;;2.45;;
41253;SDS011;26987;59.928;30.306;2023-02-11T12:03:35;9.80;;;2.40;;
41253;SDS011;26987;59.928;30.306;2023-02-11T12:06:31;17.13;;;2.80;;
41253;SDS011;26987;59.928;30.306;2023-02-11T12:09:10;7.78;;;2.15;;
41253;SDS011;26987;59.928;30.306;2023-02-11T12:11:58;8.35;;;2.60;;
41253;SDS011;26987;59.928;30.306;2023-02-11T12:14:41;5.40;;;2.47;;
41253;SDS011;26987;59.928;30.306;2023-02-11T12:17:20;15.90;;;2.13;;
41253;SDS011;26987;59.928;30.306;2023-02-11T12:20:11;6.68;;;2.08;;
41253;SDS011;26987;59.928;30.306;2023-02-11T12:22:50;7.53;;;2.58;;
41253;SDS011;26987;59.928;30.306;2023-02-11T12:25:27;15.40;;;2.85;;
41253;SDS011;26987;59.928;30.306;2023-02-11T12:28:06;8.63;;;2.20;;
41253;SDS011;26987;59.928;30.306;2023-02-11T12:30:56;9.88;;;2.42;;
41253;SDS011;26987;59.928;30.306;2023-02-11T12:33:50;5.80;;;1.70;;
41253;SDS011;26987;59.928;30.306;2023-02-11T12:36:38;7.47;;;2.33;;
41253;SDS011;26987;59.928;30.306;2023-02-11T12:39:18;14.75;;;2.83;;
41253;SDS011;26987;59.928;30.306;2023-02-11T12:42:04;10.32;;;2.22;;
41253;SDS011;26987;59.928;30.306;2023-02-11T12:45:19;11.10;;;2.05;;
41253;SDS011;26987;59.928;30.306;2023-02-11T12:47:59;12.93;;;2.00;;
41253;SDS011;26987;59.928;30.306;2023-02-11T12:50:41;4.82;;;1.80;;
41253;SDS011;26987;59.928;30.306;2023-02-11T12:56:21;10.27;;;2.05;;
41253;SDS011;26987;59.928;30.306;2023-02-11T13:01:25;11.32;;;2.22;;
41253;SDS011;26987;59.928;30.306;2023-02-11T13:03:58;7.15;;;1.75;;
41253;SDS011;26987;59.928;30.306;2023-02-11T13:06:34;8.80;;;2.38;;
41253;SDS011;26987;59.928;30.306;2023-02-11T13:09:08;12.00;;;2.47;;
41253;SDS011;26987;59.928;30.306;2023-02-11T13:11:43;11.95;;;1.90;;
41253;SDS011;26987;59.928;30.306;2023-02-11T13:16:48;5.82;;;2.05;;
41253;SDS011;26987;59.928;30.306;2023-02-11T13:19:18;14.13;;;3.63;;
41253;SDS011;26987;59.928;30.306;2023-02-11T13:21:58;15.00;;;2.17;;
41253;SDS011;26987;59.928;30.306;2023-02-11T13:24:33;7.88;;;1.88;;
41253;SDS011;26987;59.928;30.306;2023-02-11T13:27:12;12.55;;;2.80;;
41253;SDS011;26987;59.928;30.306;2023-02-11T13:30:07;11.05;;;2.20;;
41253;SDS011;26987;59.928;30.306;2023-02-11T13:33:01;13.50;;;2.65;;
41253;SDS011;26987;59.928;30.306;2023-02-11T13:35:43;10.70;;;2.33;;
41253;SDS011;26987;59.928;30.306;2023-02-11T13:38:17;7.93;;;2.28;;
41253;SDS011;26987;59.928;30.306;2023-02-11T13:40:57;5.93;;;2.05;;
41253;SDS011;26987;59.928;30.306;2023-02-11T13:43:30;7.57;;;2.35;;
41253;SDS011;26987;59.928;30.306;2023-02-11T13:45:59;4.88;;;1.73;;
41253;SDS011;26987;59.928;30.306;2023-02-11T13:48:30;9.70;;;2.13;;
41253;SDS011;26987;59.928;30.306;2023-02-11T13:51:00;8.20;;;2.00;;
41253;SDS011;26987;59.928;30.306;2023-02-11T13:53:40;10.52;;;2.63;;
41253;SDS011;26987;59.928;30.306;2023-02-11T13:56:22;11.98;;;3.10;;
41253;SDS011;26987;59.928;30.306;2023-02-11T13:58:57;9.70;;;2.55;;
41253;SDS011;26987;59.928;30.306;2023-02-11T14:08:22;9.93;;;2.40;;
41253;SDS011;26987;59.928;30.306;2023-02-11T14:11:10;9.80;;;3.17;;
41253;SDS011;26987;59.928;30.306;2023-02-11T14:14:16;5.80;;;1.77;;
41253;SDS011;26987;59.928;30.306;2023-02-11T14:19:55;6.15;;;1.40;;
41253;SDS011;26987;59.928;30.306;2023-02-11T14:22:25;7.32;;;2.13;;
41253;SDS011;26987;59.928;30.306;2023-02-11T14:24:55;11.57;;;3.53;;
41253;SDS011;26987;59.928;30.306;2023-02-11T14:30:22;6.40;;;1.88;;
41253;SDS011;26987;59.928;30.306;2023-02-11T14:33:11;18.15;;;2.40;;
41253;SDS011;26987;59.928;30.306;2023-02-11T14:36:04;11.73;;;2.60;;
41253;SDS011;26987;59.928;30.306;2023-02-11T14:38:44;11.75;;;2.05;;
41253;SDS011;26987;59.928;30.306;2023-02-11T14:41:23;7.95;;;2.00;;
41253;SDS011;26987;59.928;30.306;2023-02-11T14:43:54;13.52;;;1.77;;
41253;SDS011;26987;59.928;30.306;2023-02-11T14:46:26;6.82;;;1.75;;
41253;SDS011;26987;59.928;30.306;2023-02-11T14:48:58;9.57;;;1.80;;
41253;SDS011;26987;59.928;30.306;2023-02-11T14:51:28;12.43;;;2.05;;
41253;SDS011;26987;59.928;30.306;2023-02-11T14:54:00;9.45;;;1.80;;
41253;SDS011;26987;59.928;30.306;2023-02-11T14:56:38;10.68;;;1.75;;
41253;SDS011;26987;59.928;30.306;2023-02-11T14:59:12;8.38;;;1.80;;
41253;SDS011;26987;59.928;30.306;2023-02-11T15:01:48;6.82;;;1.80;;
41253;SDS011;26987;59.928;30.306;2023-02-11T15:04:22;7.80;;;1.73;;
41253;SDS011;26987;59.928;30.306;2023-02-11T15:06:52;7.53;;;1.63;;
41253;SDS011;26987;59.928;30.306;2023-02-11T15:09:21;10.32;;;1.85;;
41253;SDS011;26987;59.928;30.306;2023-02-11T15:11:53;10.35;;;2.33;;
41253;SDS011;26987;59.928;30.306;2023-02-11T15:14:22;11.63;;;1.27;;
41253;SDS011;26987;59.928;30.306;2023-02-11T15:16:53;4.32;;;1.48;;
41253;SDS011;26987;59.928;30.306;2023-02-11T15:19:25;9.30;;;1.70;;
41253;SDS011;26987;59.928;30.306;2023-02-11T15:21:56;7.93;;;1.85;;
41253;SDS011;26987;59.928;30.306;2023-02-11T15:24:25;5.88;;;2.00;;
41253;SDS011;26987;59.928;30.306;2023-02-11T15:26:56;8.52;;;2.03;;